createdAt,value
2023-04-23T00:00:56.175Z,22.9962
2023-04-23T00:01:57.818Z,22.9954
2023-04-23T00:02:59.873Z,22.9899
2023-04-23T00:04:01.474Z,22.9765
2023-04-23T00:05:02.784Z,22.9621
2023-04-23T00:06:04.467Z,22.9621
2023-04-23T00:07:06.013Z,22.9619
2023-04-23T00:08:07.794Z,22.9558
2023-04-23T00:09:09.335Z,22.9467
2023-04-23T00:10:11.007Z,22.9445
2023-04-23T00:11:13.192Z,22.9578
2023-04-23T00:12:14.282Z,22.9701
2023-04-23T00:13:15.909Z,22.9697
2023-04-23T00:14:17.629Z,22.9763
2023-04-23T00:15:19.719Z,22.9697
2023-04-23T00:16:20.887Z,22.9621
2023-04-23T00:17:22.492Z,22.9666
2023-04-23T00:18:24.154Z,22.9578
2023-04-23T00:19:25.828Z,22.9399
2023-04-23T00:20:27.405Z,22.9282
2023-04-23T00:21:29.030Z,22.9270
2023-04-23T00:22:30.737Z,22.9272
2023-04-23T00:23:32.447Z,22.9272
2023-04-23T00:24:34.330Z,22.9282
2023-04-23T00:25:35.590Z,22.9535
2023-04-23T00:26:37.313Z,22.9564
2023-04-23T00:27:38.931Z,22.9621
2023-04-23T00:28:41.340Z,22.9697
2023-04-23T00:29:42.215Z,22.9677
2023-04-23T00:30:43.883Z,22.9687
2023-04-23T00:31:45.485Z,22.9669
2023-04-23T00:32:47.330Z,22.9646
2023-04-23T00:33:48.736Z,22.9529
2023-04-23T00:34:50.770Z,22.9381
2023-04-23T00:35:52.018Z,22.9272
2023-04-23T00:36:53.733Z,22.9159
2023-04-23T00:37:55.290Z,22.9091
2023-04-23T00:38:57.027Z,22.9083
2023-04-23T00:39:58.764Z,22.9174
2023-04-23T00:41:00.353Z,22.9356
2023-04-23T00:42:01.878Z,22.9350
2023-04-23T00:43:03.568Z,22.9480
2023-04-23T00:44:05.325Z,22.9436
2023-04-23T00:45:06.861Z,22.9389
2023-04-23T00:46:09.314Z,22.9379
2023-04-23T00:47:10.072Z,22.9295
2023-04-23T00:48:11.805Z,22.9194
2023-04-23T00:49:14.323Z,22.9126
2023-04-23T00:50:15.163Z,22.9028
2023-04-23T00:51:17.370Z,22.8900
2023-04-23T00:52:18.359Z,22.8818
2023-04-23T00:53:19.982Z,22.8880
2023-04-23T00:54:21.570Z,22.8911
2023-04-23T00:55:23.331Z,22.8931
2023-04-23T00:56:24.960Z,22.9091
2023-04-23T00:57:26.594Z,22.9159
2023-04-23T00:58:28.140Z,22.9171
2023-04-23T00:59:29.817Z,22.9116
2023-04-23T01:00:32.319Z,22.8997
2023-04-23T01:01:33.251Z,22.8976
2023-04-23T01:02:34.812Z,22.8872
2023-04-23T01:03:36.682Z,22.8849
2023-04-23T01:04:38.177Z,22.8859
2023-04-23T01:05:39.853Z,22.8849
2023-04-23T01:06:41.472Z,22.8921
2023-04-23T01:07:43.079Z,22.8993
2023-04-23T01:08:44.727Z,22.9143
2023-04-23T01:09:46.396Z,22.9194
2023-04-23T01:10:48.102Z,22.9206
2023-04-23T01:11:49.755Z,22.9217
2023-04-23T01:12:51.277Z,22.9262
2023-04-23T01:13:52.991Z,22.9264
2023-04-23T01:14:54.538Z,22.9071
2023-04-23T01:15:56.268Z,22.8956
2023-04-23T01:16:58.874Z,22.8724
2023-04-23T01:17:59.593Z,22.8477
2023-04-23T01:19:01.084Z,22.8422
2023-04-23T01:20:02.746Z,22.8502
2023-04-23T01:21:04.467Z,22.8633
2023-04-23T01:22:06.139Z,22.8787
2023-04-23T01:23:07.763Z,22.8974
2023-04-23T01:24:09.367Z,22.9151
2023-04-23T01:25:10.977Z,22.9229
2023-04-23T01:26:13.592Z,22.9239
2023-04-23T01:27:14.341Z,22.9128
2023-04-23T01:28:15.956Z,22.9015
2023-04-23T01:29:17.599Z,22.8849
2023-04-23T01:30:19.232Z,22.8818
2023-04-23T01:31:20.966Z,22.8711
2023-04-23T01:32:22.647Z,22.8625
2023-04-23T01:33:24.118Z,22.8588
2023-04-23T01:34:26.778Z,22.8658
2023-04-23T01:35:27.343Z,22.8783
2023-04-23T01:36:29.359Z,22.8993
2023-04-23T01:37:30.818Z,22.9171
2023-04-23T01:38:33.295Z,22.9336
2023-04-23T01:39:33.996Z,22.9402
2023-04-23T01:40:36.014Z,22.9510
2023-04-23T01:41:37.237Z,22.9478
2023-04-23T01:42:38.944Z,22.9346
2023-04-23T01:43:40.558Z,22.9130
2023-04-23T01:44:42.568Z,22.9028
2023-04-23T01:45:43.914Z,22.8837
2023-04-23T01:46:45.432Z,22.8742
2023-04-23T01:47:47.224Z,22.8600
2023-04-23T01:48:48.762Z,22.8568
2023-04-23T01:49:50.397Z,22.8646
2023-04-23T01:50:52.141Z,22.8767
2023-04-23T01:51:53.672Z,22.8900
2023-04-23T01:52:55.406Z,22.8954
2023-04-23T01:53:56.918Z,22.8890
2023-04-23T01:54:59.038Z,22.8931
2023-04-23T01:56:00.236Z,22.8828
2023-04-23T01:57:01.880Z,22.8808
2023-04-23T01:58:03.505Z,22.8691
2023-04-23T01:59:06.466Z,22.8434
2023-04-23T02:00:06.760Z,22.8325
2023-04-23T02:01:09.492Z,22.8237
2023-04-23T02:02:10.069Z,22.8173
2023-04-23T02:03:11.892Z,22.8319
2023-04-23T02:04:13.380Z,22.8444
2023-04-23T02:05:15.181Z,22.8674
2023-04-23T02:06:16.613Z,22.8777
2023-04-23T02:07:18.286Z,22.8867
2023-04-23T02:08:19.938Z,22.8849
2023-04-23T02:09:22.649Z,22.8652
2023-04-23T02:10:23.163Z,22.8500
2023-04-23T02:11:25.096Z,22.8424
2023-04-23T02:12:26.584Z,22.8352
2023-04-23T02:13:28.514Z,22.8159
2023-04-23T02:14:29.756Z,22.8062
2023-04-23T02:15:31.487Z,22.8126
2023-04-23T02:16:33.136Z,22.8171
2023-04-23T02:17:34.784Z,22.8294
2023-04-23T02:18:36.366Z,22.8434
2023-04-23T02:19:38.083Z,22.8459
2023-04-23T02:20:39.666Z,22.8467
2023-04-23T02:21:41.422Z,22.8370
2023-04-23T02:22:43.882Z,22.8381
2023-04-23T02:23:44.664Z,22.8171
2023-04-23T02:24:46.306Z,22.8077
2023-04-23T02:25:48.004Z,22.7916
2023-04-23T02:26:49.549Z,22.7914
2023-04-23T02:27:51.218Z,22.7867
2023-04-23T02:28:53.010Z,22.8017
2023-04-23T02:29:54.499Z,22.8337
2023-04-23T02:30:56.090Z,22.8422
2023-04-23T02:31:57.930Z,22.8568
2023-04-23T02:32:59.437Z,22.8711
2023-04-23T02:34:01.029Z,22.8658
2023-04-23T02:35:02.645Z,22.8566
2023-04-23T02:36:04.308Z,22.8498
2023-04-23T02:37:06.957Z,22.8340
2023-04-23T02:38:07.521Z,22.8257
2023-04-23T02:39:09.102Z,22.8027
2023-04-23T02:40:10.907Z,22.7955
2023-04-23T02:41:12.928Z,22.7879
2023-04-23T02:42:14.204Z,22.7947
2023-04-23T02:43:15.783Z,22.8259
2023-04-23T02:44:17.426Z,22.8379
2023-04-23T02:45:19.088Z,22.8510
2023-04-23T02:46:20.780Z,22.8656
2023-04-23T02:47:22.447Z,22.8631
2023-04-23T02:48:24.031Z,22.8646
2023-04-23T02:49:25.650Z,22.8570
2023-04-23T02:50:27.305Z,22.8568
2023-04-23T02:51:29.509Z,22.8401
2023-04-23T02:52:30.579Z,22.8259
2023-04-23T02:53:32.217Z,22.8136
2023-04-23T02:54:33.829Z,22.8206
2023-04-23T02:55:35.500Z,22.8414
2023-04-23T02:56:37.144Z,22.8457
2023-04-23T02:57:38.932Z,22.8701
2023-04-23T02:58:40.392Z,22.8911
2023-04-23T02:59:42.118Z,22.8976
2023-04-23T03:00:43.725Z,22.9019
2023-04-23T03:01:45.394Z,22.8900
2023-04-23T03:02:47.126Z,22.8818
2023-04-23T03:03:48.869Z,22.8859
2023-04-23T03:04:50.256Z,22.8605
2023-04-23T03:05:51.926Z,22.8360
2023-04-23T03:06:53.639Z,22.8206
2023-04-23T03:07:55.936Z,22.8245
2023-04-23T03:08:56.812Z,22.8286
2023-04-23T03:09:58.539Z,22.8393
2023-04-23T03:11:00.167Z,22.8543
2023-04-23T03:12:02.486Z,22.8678
2023-04-23T03:13:03.454Z,22.8734
2023-04-23T03:14:05.140Z,22.8746
2023-04-23T03:15:06.706Z,22.8691
2023-04-23T03:16:08.934Z,22.8510
2023-04-23T03:17:10.060Z,22.8381
2023-04-23T03:18:11.716Z,22.8251
2023-04-23T03:19:13.345Z,22.8064
2023-04-23T03:20:15.914Z,22.8033
2023-04-23T03:21:16.557Z,22.8044
2023-04-23T03:22:18.307Z,22.8229
2023-04-23T03:23:19.926Z,22.8342
2023-04-23T03:24:21.559Z,22.8467
2023-04-23T03:25:23.117Z,22.8644
2023-04-23T03:26:24.828Z,22.8644
2023-04-23T03:27:26.481Z,22.8693
2023-04-23T03:28:28.162Z,22.8652
2023-04-23T03:29:29.707Z,22.8582
2023-04-23T03:30:31.381Z,22.8512
2023-04-23T03:31:32.975Z,22.8348
2023-04-23T03:32:34.714Z,22.8159
2023-04-23T03:33:36.341Z,22.8062
2023-04-23T03:34:37.952Z,22.8077
2023-04-23T03:35:39.594Z,22.8179
2023-04-23T03:36:41.204Z,22.8329
2023-04-23T03:37:42.907Z,22.8391
2023-04-23T03:38:44.596Z,22.8580
2023-04-23T03:39:46.147Z,22.8648
2023-04-23T03:40:47.843Z,22.8592
2023-04-23T03:41:49.418Z,22.8469
2023-04-23T03:42:51.169Z,22.8337
2023-04-23T03:43:53.430Z,22.8175
2023-04-23T03:44:54.371Z,22.7962
2023-04-23T03:45:56.104Z,22.7836
2023-04-23T03:46:58.402Z,22.7857
2023-04-23T03:47:59.428Z,22.7947
2023-04-23T03:49:01.454Z,22.8218
2023-04-23T03:50:02.604Z,22.8360
2023-04-23T03:51:04.229Z,22.8401
2023-04-23T03:52:05.908Z,22.8424
2023-04-23T03:53:07.596Z,22.8531
2023-04-23T03:54:09.128Z,22.8635
2023-04-23T03:55:10.787Z,22.9007
2023-04-23T03:56:12.397Z,22.9558
2023-04-23T03:57:14.016Z,23.0299
2023-04-23T03:58:15.700Z,23.1439
2023-04-23T03:59:17.333Z,23.2628
2023-04-23T04:00:19.032Z,23.3845
2023-04-23T04:01:20.594Z,23.4946
2023-04-23T04:02:22.408Z,23.6046
2023-04-23T04:03:25.185Z,23.6669
2023-04-23T04:04:25.832Z,23.7308
2023-04-23T04:05:27.309Z,23.8185
2023-04-23T04:06:28.914Z,23.8904
2023-04-23T04:07:30.464Z,23.9812
2023-04-23T04:08:32.133Z,24.0997
2023-04-23T04:09:33.764Z,24.2297
2023-04-23T04:10:35.932Z,24.3838
2023-04-23T04:11:37.410Z,24.5259
2023-04-23T04:12:38.739Z,24.5966
2023-04-23T04:13:40.370Z,24.6607
2023-04-23T04:14:42.301Z,24.7402
2023-04-23T04:15:44.459Z,24.7790
2023-04-23T04:16:45.368Z,24.8431
2023-04-23T04:17:47.017Z,24.9232
2023-04-23T04:18:48.724Z,24.9932
2023-04-23T04:19:50.606Z,25.0746
2023-04-23T04:20:52.031Z,25.1937
2023-04-23T04:21:53.630Z,25.3114
2023-04-23T04:22:55.295Z,25.4468
2023-04-23T04:23:57.980Z,25.5577
2023-04-23T04:24:58.454Z,25.6189
2023-04-23T04:26:00.203Z,25.6707
2023-04-23T04:27:01.869Z,25.7409
2023-04-23T04:28:03.554Z,25.7641
2023-04-23T04:29:05.126Z,25.8001
2023-04-23T04:30:06.880Z,25.8227
2023-04-23T04:31:08.505Z,25.9274
2023-04-23T04:32:10.098Z,26.0503
2023-04-23T04:33:11.770Z,26.1690
2023-04-23T04:34:13.449Z,26.2614
2023-04-23T04:35:14.968Z,26.3286
2023-04-23T04:36:16.703Z,26.3968
2023-04-23T04:37:18.279Z,26.4911
2023-04-23T04:38:19.960Z,26.5315
2023-04-23T04:39:21.583Z,26.6028
2023-04-23T04:40:23.278Z,26.6336
2023-04-23T04:41:24.920Z,26.6729
2023-04-23T04:42:26.534Z,26.7072
2023-04-23T04:43:28.227Z,26.7197
2023-04-23T04:44:29.796Z,26.6770
2023-04-23T04:45:31.509Z,26.6644
2023-04-23T04:46:33.131Z,26.6819
2023-04-23T04:47:34.776Z,26.7061
2023-04-23T04:48:37.377Z,26.7242
2023-04-23T04:49:38.089Z,26.7528
2023-04-23T04:50:39.680Z,26.7895
2023-04-23T04:51:41.293Z,26.8185
2023-04-23T04:52:42.983Z,26.8382
2023-04-23T04:53:44.589Z,26.8836
2023-04-23T04:54:46.226Z,26.9327
2023-04-23T04:55:47.907Z,26.9672
2023-04-23T04:56:49.627Z,26.9976
2023-04-23T04:57:52.200Z,27.0229
2023-04-23T04:58:53.776Z,27.0609
2023-04-23T04:59:55.350Z,27.0946
2023-04-23T05:00:56.098Z,27.1359
2023-04-23T05:01:57.793Z,27.1601
2023-04-23T05:02:59.535Z,27.1954
2023-04-23T05:04:01.109Z,27.2242
2023-04-23T05:05:02.619Z,27.2275
2023-04-23T05:06:04.302Z,27.2396
2023-04-23T05:07:05.925Z,27.2704
2023-04-23T05:08:07.574Z,27.3057
2023-04-23T05:09:09.173Z,27.3400
2023-04-23T05:10:10.931Z,27.3731
2023-04-23T05:11:12.498Z,27.4010
2023-04-23T05:12:14.238Z,27.4347
2023-04-23T05:13:15.855Z,27.4649
2023-04-23T05:14:17.459Z,27.4951
2023-04-23T05:15:19.108Z,27.5142
2023-04-23T05:16:20.871Z,27.5432
2023-04-23T05:17:23.075Z,27.5514
2023-04-23T05:18:24.120Z,27.5758
2023-04-23T05:19:25.647Z,27.5976
2023-04-23T05:20:27.352Z,27.6173
2023-04-23T05:21:29.022Z,27.6237
2023-04-23T05:22:30.670Z,27.6350
2023-04-23T05:23:32.213Z,27.6407
2023-04-23T05:24:33.948Z,27.6582
2023-04-23T05:25:35.580Z,27.6701
2023-04-23T05:26:37.267Z,27.6923
2023-04-23T05:27:38.893Z,27.7128
2023-04-23T05:28:40.517Z,27.7379
2023-04-23T05:29:42.118Z,27.7601
2023-04-23T05:30:43.804Z,27.7566
2023-04-23T05:31:45.498Z,27.7771
2023-04-23T05:32:47.198Z,27.8045
2023-04-23T05:33:50.504Z,27.8223
2023-04-23T05:34:50.372Z,27.8435
2023-04-23T05:35:52.019Z,27.8595
2023-04-23T05:36:53.772Z,27.8663
2023-04-23T05:37:55.373Z,27.8903
2023-04-23T05:38:56.996Z,27.9133
2023-04-23T05:39:58.577Z,27.9382
2023-04-23T05:41:00.291Z,27.9641
2023-04-23T05:42:02.405Z,27.9932
2023-04-23T05:43:03.579Z,28.0314
2023-04-23T05:44:05.185Z,28.0421
2023-04-23T05:45:08.864Z,28.0649
2023-04-23T05:46:08.512Z,28.1013
2023-04-23T05:47:10.203Z,28.1243
2023-04-23T05:48:11.843Z,28.1578
2023-04-23T05:49:13.468Z,28.1917
2023-04-23T05:50:15.092Z,28.2007
2023-04-23T05:51:16.788Z,28.2099
2023-04-23T05:52:18.434Z,28.2233
2023-04-23T05:53:20.162Z,28.2354
2023-04-23T05:54:21.653Z,28.2564
2023-04-23T05:55:23.338Z,28.2874
2023-04-23T05:56:25.058Z,28.3040
2023-04-23T05:57:27.525Z,28.3350
2023-04-23T05:58:28.346Z,28.3422
2023-04-23T05:59:29.978Z,28.3638
2023-04-23T06:00:31.630Z,28.3739
2023-04-23T06:01:33.205Z,28.3774
2023-04-23T06:02:35.042Z,28.4014
2023-04-23T06:03:36.793Z,28.4367
2023-04-23T06:04:38.361Z,28.4669
2023-04-23T06:05:39.835Z,28.4903
2023-04-23T06:06:41.484Z,28.5248
2023-04-23T06:07:43.180Z,28.5733
2023-04-23T06:08:45.063Z,28.5951
2023-04-23T06:09:46.401Z,28.6154
2023-04-23T06:10:48.108Z,28.6565
2023-04-23T06:11:49.683Z,28.6731
2023-04-23T06:12:51.592Z,28.6918
2023-04-23T06:13:53.060Z,28.7163
2023-04-23T06:14:54.689Z,28.7409
2023-04-23T06:15:56.319Z,28.7609
2023-04-23T06:16:57.981Z,28.7545
2023-04-23T06:17:59.666Z,28.7728
2023-04-23T06:19:01.588Z,28.7950
2023-04-23T06:20:02.904Z,28.8223
2023-04-23T06:21:04.566Z,28.8494
2023-04-23T06:22:06.164Z,28.8765
2023-04-23T06:23:07.866Z,28.9073
2023-04-23T06:24:09.504Z,28.9248
2023-04-23T06:25:11.180Z,28.9515
2023-04-23T06:26:12.722Z,28.9778
2023-04-23T06:27:14.421Z,29.0098
2023-04-23T06:28:16.163Z,29.0416
2023-04-23T06:29:17.758Z,29.0702
2023-04-23T06:30:19.374Z,29.0928
2023-04-23T06:31:21.061Z,29.1070
2023-04-23T06:32:22.630Z,29.1294
2023-04-23T06:33:24.284Z,29.1536
2023-04-23T06:34:26.131Z,29.1793
2023-04-23T06:35:27.635Z,29.1826
2023-04-23T06:36:29.166Z,29.2236
2023-04-23T06:37:31.029Z,29.2499
2023-04-23T06:38:32.428Z,29.2814
2023-04-23T06:39:34.183Z,29.3126
2023-04-23T06:40:35.718Z,29.3500
2023-04-23T06:41:37.337Z,29.3724
2023-04-23T06:42:40.096Z,29.3958
2023-04-23T06:43:40.887Z,29.4030
2023-04-23T06:44:42.675Z,29.4389
2023-04-23T06:45:44.232Z,29.4601
2023-04-23T06:46:45.826Z,29.4878
2023-04-23T06:47:48.212Z,29.5159
2023-04-23T06:48:48.999Z,29.5377
2023-04-23T06:49:50.736Z,29.5872
2023-04-23T06:50:52.379Z,29.6242
2023-04-23T06:51:56.975Z,29.6677
2023-04-23T06:52:55.476Z,29.7183
2023-04-23T06:53:57.193Z,29.7456
2023-04-23T06:54:59.862Z,29.7824
2023-04-23T06:56:00.461Z,29.8238
2023-04-23T06:57:02.179Z,29.8610
2023-04-23T06:58:03.753Z,29.8376
2023-04-23T06:59:05.356Z,29.7756
2023-04-23T07:00:07.109Z,29.6308
2023-04-23T07:01:08.701Z,29.4321
2023-04-23T07:02:10.369Z,29.4048
2023-04-23T07:03:11.997Z,29.4508
2023-04-23T07:04:13.669Z,29.5022
2023-04-23T07:05:15.272Z,29.5704
2023-04-23T07:06:18.603Z,29.6238
2023-04-23T07:07:18.508Z,29.6774
2023-04-23T07:08:20.205Z,29.7248
2023-04-23T07:09:21.818Z,29.7865
2023-04-23T07:10:23.560Z,29.8234
2023-04-23T07:11:25.142Z,29.8828
2023-04-23T07:12:26.830Z,29.9165
2023-04-23T07:13:28.442Z,29.8818
2023-04-23T07:14:30.087Z,29.6295
2023-04-23T07:15:31.845Z,29.3814
2023-04-23T07:16:33.480Z,29.4017
2023-04-23T07:17:34.992Z,29.4671
2023-04-23T07:18:36.657Z,29.5387
2023-04-23T07:19:38.288Z,29.5973
2023-04-23T07:20:39.989Z,29.6371
2023-04-23T07:21:41.578Z,29.6723
2023-04-23T07:22:43.232Z,29.7228
2023-04-23T07:23:44.865Z,29.7797
2023-04-23T07:24:46.522Z,29.8378
2023-04-23T07:25:48.183Z,29.8908
2023-04-23T07:26:49.858Z,29.7433
2023-04-23T07:27:51.401Z,29.4081
2023-04-23T07:28:53.183Z,29.3847
2023-04-23T07:29:54.704Z,29.4650
2023-04-23T07:30:56.454Z,29.5408
2023-04-23T07:31:58.077Z,29.6209
2023-04-23T07:32:59.718Z,29.7150
2023-04-23T07:34:01.392Z,29.8146
2023-04-23T07:35:02.975Z,29.9095
2023-04-23T07:36:04.598Z,30.0019
2023-04-23T07:37:06.316Z,29.9939
2023-04-23T07:38:07.860Z,29.6392
2023-04-23T07:39:09.545Z,29.2088
2023-04-23T07:40:11.189Z,29.3526
2023-04-23T07:41:12.914Z,29.4931
2023-04-23T07:42:15.068Z,29.6178
2023-04-23T07:43:16.142Z,29.7002
2023-04-23T07:44:17.761Z,29.7425
2023-04-23T07:45:19.500Z,29.7932
2023-04-23T07:46:21.146Z,29.8204
2023-04-23T07:47:23.002Z,29.8754
2023-04-23T07:48:24.413Z,29.8984
2023-04-23T07:49:26.021Z,29.7807
2023-04-23T07:50:27.637Z,29.4032
2023-04-23T07:51:29.351Z,29.3364
2023-04-23T07:52:30.957Z,29.3428
2023-04-23T07:53:32.577Z,29.3824
2023-04-23T07:54:34.207Z,29.4225
2023-04-23T07:55:35.917Z,29.4623
2023-04-23T07:56:37.597Z,29.5009
2023-04-23T07:57:39.241Z,29.5449
2023-04-23T07:58:40.815Z,29.5691
2023-04-23T07:59:42.863Z,29.5735
2023-04-23T08:00:44.088Z,29.5811
2023-04-23T08:01:45.820Z,29.5886
2023-04-23T08:02:47.614Z,29.5958
2023-04-23T08:03:49.440Z,29.6236
2023-04-23T08:04:50.827Z,29.6392
2023-04-23T08:05:52.336Z,29.6394
2023-04-23T08:06:54.045Z,29.6330
2023-04-23T08:07:55.645Z,29.6394
2023-04-23T08:08:57.308Z,29.6349
2023-04-23T08:09:58.900Z,29.6232
2023-04-23T08:11:00.547Z,29.6262
2023-04-23T08:12:02.236Z,29.6100
2023-04-23T08:13:03.902Z,29.5874
2023-04-23T08:14:05.496Z,29.5702
2023-04-23T08:15:07.220Z,29.5502
2023-04-23T08:16:08.790Z,29.5603
2023-04-23T08:17:10.463Z,29.5589
2023-04-23T08:18:12.107Z,29.5578
2023-04-23T08:19:13.706Z,29.5636
2023-04-23T08:20:15.302Z,29.5566
2023-04-23T08:21:17.031Z,29.5513
2023-04-23T08:22:20.293Z,29.5706
2023-04-23T08:23:20.353Z,29.5605
2023-04-23T08:24:22.456Z,29.5745
2023-04-23T08:25:23.603Z,29.5724
2023-04-23T08:26:25.214Z,29.5517
2023-04-23T08:27:26.971Z,29.5398
2023-04-23T08:28:28.593Z,29.5270
2023-04-23T08:29:30.208Z,29.5221
2023-04-23T08:30:31.789Z,29.5184
2023-04-23T08:31:33.509Z,29.5073
2023-04-23T08:32:35.158Z,29.5131
2023-04-23T08:33:36.875Z,29.5313
2023-04-23T08:34:38.442Z,29.5587
2023-04-23T08:35:40.078Z,29.5636
2023-04-23T08:36:41.649Z,29.5722
2023-04-23T08:37:43.444Z,29.5884
2023-04-23T08:38:44.989Z,29.5979
2023-04-23T08:39:46.686Z,29.6151
2023-04-23T08:40:48.227Z,29.6264
2023-04-23T08:41:49.926Z,29.6384
2023-04-23T08:42:51.644Z,29.6521
2023-04-23T08:43:53.238Z,29.6566
2023-04-23T08:44:54.801Z,29.6568
2023-04-23T08:45:56.510Z,29.6536
2023-04-23T08:46:58.248Z,29.6460
2023-04-23T08:48:02.134Z,29.6501
2023-04-23T08:49:01.452Z,29.6373
2023-04-23T08:50:03.074Z,29.6373
2023-04-23T08:51:04.690Z,29.6412
2023-04-23T08:52:06.380Z,29.6032
2023-04-23T08:53:08.065Z,29.4564
2023-04-23T08:54:09.679Z,29.2616
2023-04-23T08:55:11.255Z,29.0963
2023-04-23T08:56:12.940Z,28.9211
2023-04-23T08:57:14.574Z,28.7650
2023-04-23T08:58:16.279Z,28.6762
2023-04-23T08:59:17.911Z,28.6590
2023-04-23T09:00:19.455Z,28.6851
2023-04-23T09:01:21.297Z,28.7444
2023-04-23T09:02:22.986Z,28.8221
2023-04-23T09:03:24.547Z,28.9050
2023-04-23T09:04:26.164Z,28.9985
2023-04-23T09:05:27.710Z,29.0708
2023-04-23T09:06:29.422Z,29.1361
2023-04-23T09:07:31.023Z,29.2304
2023-04-23T09:08:32.753Z,29.2996
2023-04-23T09:09:34.641Z,29.3502
2023-04-23T09:10:35.974Z,29.4013
2023-04-23T09:11:37.577Z,29.4262
2023-04-23T09:12:39.276Z,29.4389
2023-04-23T09:13:40.950Z,29.4317
2023-04-23T09:14:42.852Z,29.4348
2023-04-23T09:15:44.169Z,29.4307
2023-04-23T09:16:45.922Z,29.4202
2023-04-23T09:17:47.529Z,29.4023
2023-04-23T09:18:49.194Z,29.4048
2023-04-23T09:19:50.858Z,29.4079
2023-04-23T09:20:52.528Z,29.4319
2023-04-23T09:21:54.046Z,29.4496
2023-04-23T09:22:55.727Z,29.4755
2023-04-23T09:23:57.449Z,29.4921
2023-04-23T09:24:59.090Z,29.4888
2023-04-23T09:26:00.627Z,29.5184
2023-04-23T09:27:02.267Z,29.5281
2023-04-23T09:28:03.958Z,29.5387
2023-04-23T09:29:05.609Z,29.5624
2023-04-23T09:30:07.294Z,29.5710
2023-04-23T09:31:08.879Z,29.5628
2023-04-23T09:32:10.586Z,29.5546
2023-04-23T09:33:12.151Z,29.5591
2023-04-23T09:34:14.206Z,29.5626
2023-04-23T09:35:15.554Z,29.5796
2023-04-23T09:36:17.233Z,29.5780
2023-04-23T09:37:18.783Z,29.5979
2023-04-23T09:38:20.428Z,29.6176
2023-04-23T09:39:22.065Z,29.6406
2023-04-23T09:40:23.749Z,29.6893
2023-04-23T09:41:25.304Z,29.6977
2023-04-23T09:42:26.986Z,29.7392
2023-04-23T09:43:28.575Z,29.7787
2023-04-23T09:44:30.353Z,29.8136
2023-04-23T09:45:31.945Z,29.8703
2023-04-23T09:46:33.562Z,29.9003
2023-04-23T09:47:35.252Z,29.9333
2023-04-23T09:48:36.879Z,30.0106
2023-04-23T09:49:38.534Z,30.0816
2023-04-23T09:50:40.245Z,30.1667
2023-04-23T09:51:41.769Z,30.2345
2023-04-23T09:52:43.431Z,30.2838
2023-04-23T09:53:45.056Z,30.2930
2023-04-23T09:54:47.214Z,30.1652
2023-04-23T09:55:48.397Z,30.0385
2023-04-23T09:56:50.076Z,29.9093
2023-04-23T09:57:51.611Z,29.7637
2023-04-23T09:58:53.366Z,29.6784
2023-04-23T10:00:03.754Z,29.6780
2023-04-23T10:00:56.638Z,29.7252
2023-04-23T10:01:58.289Z,29.7517
2023-04-23T10:03:00.168Z,29.8119
2023-04-23T10:04:01.694Z,29.8756
2023-04-23T10:05:21.468Z,29.9226
2023-04-23T10:06:05.264Z,29.9678
2023-04-23T10:07:17.923Z,30.0026
2023-04-23T10:08:08.232Z,30.0566
2023-04-23T10:09:09.704Z,30.1024
2023-04-23T10:10:11.463Z,30.1398
2023-04-23T10:11:20.734Z,30.1975
2023-04-23T10:13:16.302Z,30.3290
2023-04-23T10:14:17.962Z,30.4263
2023-04-23T10:15:19.684Z,30.5226
2023-04-23T10:16:23.284Z,30.6141
2023-04-23T10:17:22.932Z,30.6989
2023-04-23T10:18:24.492Z,30.7024
2023-04-23T10:19:27.171Z,30.6658
2023-04-23T10:20:27.878Z,30.6794
2023-04-23T10:21:36.620Z,30.7153
2023-04-23T10:22:31.067Z,30.7163
2023-04-23T10:23:32.802Z,30.6911
2023-04-23T10:24:34.371Z,30.6742
2023-04-23T10:25:36.729Z,30.6903
2023-04-23T10:26:38.190Z,30.7176
2023-04-23T10:27:51.118Z,30.7484
2023-04-23T10:28:41.042Z,30.7800
2023-04-23T10:29:43.017Z,30.7603
2023-04-23T10:30:44.681Z,30.7944
2023-04-23T10:31:45.980Z,30.8121
2023-04-23T10:32:47.561Z,30.7932
2023-04-23T10:33:58.204Z,30.7778
2023-04-23T10:34:50.931Z,30.8252
2023-04-23T10:35:52.601Z,30.8606
2023-04-23T10:36:54.181Z,30.8735
2023-04-23T10:37:55.844Z,30.8267
2023-04-23T10:38:59.106Z,30.7539
2023-04-23T10:39:59.132Z,30.7431
2023-04-23T10:41:00.801Z,30.7702
2023-04-23T10:42:02.466Z,30.8100
2023-04-23T10:43:04.026Z,30.8034
2023-04-23T10:44:05.723Z,30.7541
2023-04-23T10:45:16.613Z,30.7067
2023-04-23T10:46:09.139Z,30.6837
2023-04-23T10:47:10.738Z,30.6773
2023-04-23T10:48:12.460Z,30.6734
2023-04-23T10:49:14.016Z,30.6619
2023-04-23T10:50:15.744Z,30.6369
2023-04-23T10:51:56.084Z,30.6650
2023-04-23T10:52:21.495Z,30.6749
2023-04-23T10:53:20.604Z,30.6506
2023-04-23T10:54:22.319Z,30.6122
2023-04-23T10:55:23.969Z,30.5722
2023-04-23T10:56:25.789Z,30.5890
2023-04-23T10:57:27.271Z,30.5960
2023-04-23T10:58:28.943Z,30.6026
2023-04-23T10:59:30.465Z,30.6229
2023-04-23T11:00:32.164Z,30.6083
2023-04-23T11:01:33.827Z,30.5724
2023-04-23T11:02:35.607Z,30.5319
2023-04-23T11:03:39.646Z,30.5407
2023-04-23T11:04:38.834Z,30.5754
2023-04-23T11:05:40.389Z,30.6295
2023-04-23T11:06:42.089Z,30.7044
2023-04-23T11:07:43.750Z,30.7544
2023-04-23T11:08:45.426Z,30.8115
2023-04-23T11:09:47.013Z,30.8254
2023-04-23T11:10:48.667Z,30.8509
2023-04-23T11:11:50.288Z,30.8659
2023-04-23T11:12:52.027Z,30.7885
2023-04-23T11:13:53.621Z,30.6849
2023-04-23T11:14:55.307Z,30.6849
2023-04-23T11:15:56.907Z,30.6847
2023-04-23T11:16:58.530Z,30.6771
2023-04-23T11:18:00.216Z,30.7014
2023-04-23T11:19:01.911Z,30.7377
2023-04-23T11:20:03.558Z,30.6835
2023-04-23T11:21:05.187Z,30.5432
2023-04-23T11:22:06.767Z,30.4844
2023-04-23T11:23:08.462Z,30.4115
2023-04-23T11:24:10.097Z,30.3530
2023-04-23T11:25:11.842Z,30.2334
2023-04-23T11:26:13.424Z,30.1289
2023-04-23T11:27:15.044Z,30.1418
2023-04-23T11:28:16.694Z,30.1482
2023-04-23T11:29:18.339Z,30.1200
2023-04-23T11:30:19.962Z,30.1973
2023-04-23T11:31:21.656Z,30.2599
2023-04-23T11:32:23.298Z,30.3226
2023-04-23T11:33:24.927Z,30.3842
2023-04-23T11:34:26.604Z,30.4339
2023-04-23T11:35:28.167Z,30.4197
2023-04-23T11:36:30.699Z,30.3976
2023-04-23T11:37:31.480Z,30.4031
2023-04-23T11:38:33.056Z,30.3920
2023-04-23T11:39:34.733Z,30.3887
2023-04-23T11:40:36.643Z,30.3287
2023-04-23T11:41:38.087Z,30.2858
2023-04-23T11:42:39.664Z,30.2546
2023-04-23T11:43:42.212Z,30.2608
2023-04-23T11:44:42.972Z,30.3037
2023-04-23T11:45:44.701Z,30.3702
2023-04-23T11:46:46.272Z,30.4255
2023-04-23T11:47:47.962Z,30.4694
2023-04-23T11:48:49.562Z,30.5261
2023-04-23T11:49:51.271Z,30.5989
2023-04-23T11:50:53.130Z,30.6364
2023-04-23T11:51:54.611Z,30.5709
2023-04-23T11:52:56.201Z,30.4271
2023-04-23T11:53:57.906Z,30.4084
2023-04-23T11:54:59.467Z,30.4210
2023-04-23T11:56:01.219Z,30.4526
2023-04-23T11:57:02.788Z,30.4532
2023-04-23T11:58:04.472Z,30.4801
2023-04-23T11:59:06.069Z,30.5765
2023-04-23T12:00:07.763Z,30.6806
2023-04-23T12:01:09.448Z,30.7741
2023-04-23T12:02:11.100Z,30.8439
2023-04-23T12:03:12.936Z,30.8573
2023-04-23T12:04:14.662Z,30.7798
2023-04-23T12:05:16.154Z,30.6806
2023-04-23T12:06:17.883Z,30.5557
2023-04-23T12:07:26.341Z,30.5851
2023-04-23T12:08:21.140Z,30.6714
2023-04-23T12:09:23.725Z,30.7636
2023-04-23T12:10:24.392Z,30.8275
2023-04-23T12:11:26.122Z,30.8156
2023-04-23T12:12:27.738Z,30.7348
2023-04-23T12:13:29.407Z,30.6519
2023-04-23T12:14:31.176Z,30.6280
2023-04-23T12:15:32.780Z,30.6642
2023-04-23T12:16:34.271Z,30.7108
2023-04-23T12:17:35.997Z,30.7332
2023-04-23T12:18:37.680Z,30.7759
2023-04-23T12:19:39.380Z,30.8110
2023-04-23T12:20:40.888Z,30.8419
2023-04-23T12:21:42.685Z,30.8160
2023-04-23T12:22:44.193Z,30.7650
2023-04-23T12:23:45.915Z,30.7375
2023-04-23T12:24:47.416Z,30.7529
2023-04-23T12:25:49.193Z,30.7377
2023-04-23T12:26:50.810Z,30.6857